sensor_id;sensor_type;location;lat;lon;timestamp;P1;durP1;ratioP1;P2;durP2;ratioP2
14251;SDS011;7210;51.502;10.722;2023-02-15T00:02:01;46.93;;;14.77;;
14251;SDS011;7210;51.502;10.722;2023-02-15T00:04:28;55.57;;;15.00;;
14251;SDS011;7210;51.502;10.722;2023-02-15T00:07:11;67.03;;;15.23;;
14251;SDS011;7210;51.502;10.722;2023-02-15T00:09:44;27.17;;;14.97;;
14251;SDS011;7210;51.502;10.722;2023-02-15T00:12:13;51.90;;;15.60;;
14251;SDS011;7210;51.502;10.722;2023-02-15T00:14:42;45.80;;;14.97;;
14251;SDS011;7210;51.502;10.722;2023-02-15T00:17:09;59.80;;;15.23;;
14251;SDS011;7210;51.502;10.722;2023-02-15T00:19:36;33.53;;;13.67;;
14251;SDS011;7210;51.502;10.722;2023-02-15T00:22:07;38.33;;;13.23;;
14251;SDS011;7210;51.502;10.722;2023-02-15T00:24:35;89.13;;;16.87;;
14251;SDS011;7210;51.502;10.722;2023-02-15T00:27:03;137.50;;;21.57;;
14251;SDS011;7210;51.502;10.722;2023-02-15T00:29:30;122.33;;;18.60;;
14251;SDS011;7210;51.502;10.722;2023-02-15T00:31:57;101.77;;;15.77;;
14251;SDS011;7210;51.502;10.722;2023-02-15T00:34:25;77.40;;;14.80;;
14251;SDS011;7210;51.502;10.722;2023-02-15T00:36:55;78.43;;;16.47;;
14251;SDS011;7210;51.502;10.722;2023-02-15T00:39:23;86.03;;;17.83;;
14251;SDS011;7210;51.502;10.722;2023-02-15T00:41:52;96.73;;;17.73;;
14251;SDS011;7210;51.502;10.722;2023-02-15T00:44:19;79.43;;;18.40;;
14251;SDS011;7210;51.502;10.722;2023-02-15T00:46:46;101.60;;;18.10;;
14251;SDS011;7210;51.502;10.722;2023-02-15T00:49:13;39.80;;;14.97;;
14251;SDS011;7210;51.502;10.722;2023-02-15T00:51:41;21.37;;;12.80;;
14251;SDS011;7210;51.502;10.722;2023-02-15T00:54:08;27.63;;;13.50;;
14251;SDS011;7210;51.502;10.722;2023-02-15T00:56:35;31.17;;;13.63;;
14251;SDS011;7210;51.502;10.722;2023-02-15T00:59:04;39.63;;;13.63;;
14251;SDS011;7210;51.502;10.722;2023-02-15T01:01:31;52.80;;;16.90;;
14251;SDS011;7210;51.502;10.722;2023-02-15T01:03:59;61.67;;;15.07;;
14251;SDS011;7210;51.502;10.722;2023-02-15T01:06:28;65.00;;;16.90;;
14251;SDS011;7210;51.502;10.722;2023-02-15T01:08:55;54.43;;;15.53;;
14251;SDS011;7210;51.502;10.722;2023-02-15T01:11:23;46.17;;;15.43;;
14251;SDS011;7210;51.502;10.722;2023-02-15T01:13:51;34.30;;;14.53;;
14251;SDS011;7210;51.502;10.722;2023-02-15T01:16:22;19.40;;;13.50;;
14251;SDS011;7210;51.502;10.722;2023-02-15T01:18:55;26.23;;;14.10;;
14251;SDS011;7210;51.502;10.722;2023-02-15T01:21:24;32.00;;;14.93;;
14251;SDS011;7210;51.502;10.722;2023-02-15T01:23:52;53.37;;;18.07;;
14251;SDS011;7210;51.502;10.722;2023-02-15T01:26:19;39.63;;;16.37;;
14251;SDS011;7210;51.502;10.722;2023-02-15T01:28:46;80.03;;;18.37;;
14251;SDS011;7210;51.502;10.722;2023-02-15T01:31:16;40.07;;;16.20;;
14251;SDS011;7210;51.502;10.722;2023-02-15T01:33:46;43.80;;;17.03;;
14251;SDS011;7210;51.502;10.722;2023-02-15T01:36:15;32.83;;;15.23;;
14251;SDS011;7210;51.502;10.722;2023-02-15T01:38:42;50.47;;;15.60;;
14251;SDS011;7210;51.502;10.722;2023-02-15T01:41:09;39.20;;;16.37;;
14251;SDS011;7210;51.502;10.722;2023-02-15T01:43:48;25.27;;;14.27;;
14251;SDS011;7210;51.502;10.722;2023-02-15T01:46:20;33.03;;;16.27;;
14251;SDS011;7210;51.502;10.722;2023-02-15T01:48:56;50.33;;;17.23;;
14251;SDS011;7210;51.502;10.722;2023-02-15T01:51:30;25.27;;;16.27;;
14251;SDS011;7210;51.502;10.722;2023-02-15T01:54:05;21.43;;;14.17;;
14251;SDS011;7210;51.502;10.722;2023-02-15T01:56:38;29.93;;;16.47;;
14251;SDS011;7210;51.502;10.722;2023-02-15T01:59:08;39.13;;;16.37;;
14251;SDS011;7210;51.502;10.722;2023-02-15T02:01:44;24.23;;;15.03;;
14251;SDS011;7210;51.502;10.722;2023-02-15T02:04:15;24.33;;;15.47;;
14251;SDS011;7210;51.502;10.722;2023-02-15T02:06:50;22.20;;;15.23;;
14251;SDS011;7210;51.502;10.722;2023-02-15T02:09:19;36.57;;;16.07;;
14251;SDS011;7210;51.502;10.722;2023-02-15T02:11:55;21.30;;;13.83;;
14251;SDS011;7210;51.502;10.722;2023-02-15T02:14:23;17.77;;;12.43;;
14251;SDS011;7210;51.502;10.722;2023-02-15T02:16:52;17.53;;;13.20;;
14251;SDS011;7210;51.502;10.722;2023-02-15T02:19:39;15.07;;;11.67;;
14251;SDS011;7210;51.502;10.722;2023-02-15T02:22:38;13.60;;;10.37;;
14251;SDS011;7210;51.502;10.722;2023-02-15T02:25:51;14.70;;;11.20;;
14251;SDS011;7210;51.502;10.722;2023-02-15T02:35:48;13.77;;;10.47;;
14251;SDS011;7210;51.502;10.722;2023-02-15T02:38:27;14.53;;;11.23;;
14251;SDS011;7210;51.502;10.722;2023-02-15T02:41:06;14.73;;;11.90;;
14251;SDS011;7210;51.502;10.722;2023-02-15T02:43:43;13.27;;;10.87;;
14251;SDS011;7210;51.502;10.722;2023-02-15T02:46:20;13.90;;;10.67;;
14251;SDS011;7210;51.502;10.722;2023-02-15T02:48:57;13.30;;;11.00;;
14251;SDS011;7210;51.502;10.722;2023-02-15T02:51:25;14.30;;;10.67;;
14251;SDS011;7210;51.502;10.722;2023-02-15T02:53:53;14.03;;;11.40;;
14251;SDS011;7210;51.502;10.722;2023-02-15T02:56:27;13.87;;;11.00;;
14251;SDS011;7210;51.502;10.722;2023-02-15T02:59:02;12.90;;;10.77;;
14251;SDS011;7210;51.502;10.722;2023-02-15T03:01:37;13.80;;;10.63;;
14251;SDS011;7210;51.502;10.722;2023-02-15T03:04:12;15.73;;;10.73;;
14251;SDS011;7210;51.502;10.722;2023-02-15T03:06:45;16.13;;;10.50;;
14251;SDS011;7210;51.502;10.722;2023-02-15T03:09:20;15.77;;;11.47;;
14251;SDS011;7210;51.502;10.722;2023-02-15T03:14:51;14.10;;;10.37;;
14251;SDS011;7210;51.502;10.722;2023-02-15T03:17:25;16.67;;;11.77;;
14251;SDS011;7210;51.502;10.722;2023-02-15T03:20:01;12.40;;;10.33;;
14251;SDS011;7210;51.502;10.722;2023-02-15T03:22:34;12.87;;;10.53;;
14251;SDS011;7210;51.502;10.722;2023-02-15T03:25:10;14.40;;;11.27;;
14251;SDS011;7210;51.502;10.722;2023-02-15T03:27:45;12.83;;;10.67;;
14251;SDS011;7210;51.502;10.722;2023-02-15T03:30:18;14.27;;;10.17;;
14251;SDS011;7210;51.502;10.722;2023-02-15T03:32:49;16.90;;;12.33;;
14251;SDS011;7210;51.502;10.722;2023-02-15T03:35:19;18.93;;;11.77;;
14251;SDS011;7210;51.502;10.722;2023-02-15T03:37:53;19.90;;;13.13;;
14251;SDS011;7210;51.502;10.722;2023-02-15T03:40:28;18.20;;;12.47;;
14251;SDS011;7210;51.502;10.722;2023-02-15T03:43:19;17.07;;;12.60;;
14251;SDS011;7210;51.502;10.722;2023-02-15T03:45:58;16.60;;;12.37;;
14251;SDS011;7210;51.502;10.722;2023-02-15T03:48:34;22.67;;;16.10;;
14251;SDS011;7210;51.502;10.722;2023-02-15T03:51:09;18.20;;;12.70;;
14251;SDS011;7210;51.502;10.722;2023-02-15T03:54:04;22.63;;;13.20;;
14251;SDS011;7210;51.502;10.722;2023-02-15T03:56:36;17.90;;;12.77;;
14251;SDS011;7210;51.502;10.722;2023-02-15T03:59:06;15.93;;;13.00;;
14251;SDS011;7210;51.502;10.722;2023-02-15T04:01:54;16.60;;;12.30;;
14251;SDS011;7210;51.502;10.722;2023-02-15T04:04:38;16.53;;;11.93;;
14251;SDS011;7210;51.502;10.722;2023-02-15T04:07:14;17.27;;;12.30;;
14251;SDS011;7210;51.502;10.722;2023-02-15T04:09:41;16.23;;;12.00;;
14251;SDS011;7210;51.502;10.722;2023-02-15T04:12:34;18.50;;;12.93;;
14251;SDS011;7210;51.502;10.722;2023-02-15T04:15:01;17.67;;;13.23;;
14251;SDS011;7210;51.502;10.722;2023-02-15T04:17:45;17.13;;;11.37;;
14251;SDS011;7210;51.502;10.722;2023-02-15T04:20:13;16.60;;;12.10;;
14251;SDS011;7210;51.502;10.722;2023-02-15T04:22:58;18.03;;;12.40;;
14251;SDS011;7210;51.502;10.722;2023-02-15T04:25:43;17.93;;;12.43;;
14251;SDS011;7210;51.502;10.722;2023-02-15T04:28:10;16.83;;;12.47;;
14251;SDS011;7210;51.502;10.722;2023-02-15T04:30:37;18.40;;;12.10;;
14251;SDS011;7210;51.502;10.722;2023-02-15T04:33:05;17.70;;;12.17;;
14251;SDS011;7210;51.502;10.722;2023-02-15T04:35:32;20.17;;;13.00;;
14251;SDS011;7210;51.502;10.722;2023-02-15T04:38:00;21.77;;;13.53;;
14251;SDS011;7210;51.502;10.722;2023-02-15T04:40:28;19.50;;;12.60;;
14251;SDS011;7210;51.502;10.722;2023-02-15T04:42:55;18.03;;;12.07;;
14251;SDS011;7210;51.502;10.722;2023-02-15T04:45:22;15.40;;;11.93;;
14251;SDS011;7210;51.502;10.722;2023-02-15T04:47:49;18.93;;;12.60;;
14251;SDS011;7210;51.502;10.722;2023-02-15T04:50:16;16.63;;;12.13;;
14251;SDS011;7210;51.502;10.722;2023-02-15T04:52:44;21.80;;;11.77;;
14251;SDS011;7210;51.502;10.722;2023-02-15T04:55:13;24.83;;;12.03;;
14251;SDS011;7210;51.502;10.722;2023-02-15T04:57:40;28.07;;;12.70;;
14251;SDS011;7210;51.502;10.722;2023-02-15T05:00:07;29.97;;;12.07;;
14251;SDS011;7210;51.502;10.722;2023-02-15T05:02:36;21.67;;;11.00;;
14251;SDS011;7210;51.502;10.722;2023-02-15T05:05:03;18.37;;;11.87;;
14251;SDS011;7210;51.502;10.722;2023-02-15T05:07:32;22.53;;;15.00;;
14251;SDS011;7210;51.502;10.722;2023-02-15T05:09:59;29.37;;;14.17;;
14251;SDS011;7210;51.502;10.722;2023-02-15T05:12:27;20.17;;;11.77;;
14251;SDS011;7210;51.502;10.722;2023-02-15T05:14:55;21.73;;;12.10;;
14251;SDS011;7210;51.502;10.722;2023-02-15T05:17:22;26.07;;;12.83;;
14251;SDS011;7210;51.502;10.722;2023-02-15T05:19:49;24.80;;;13.13;;
14251;SDS011;7210;51.502;10.722;2023-02-15T05:22:16;24.33;;;12.60;;
14251;SDS011;7210;51.502;10.722;2023-02-15T05:24:43;41.30;;;12.93;;
14251;SDS011;7210;51.502;10.722;2023-02-15T05:27:29;36.00;;;13.37;;
14251;SDS011;7210;51.502;10.722;2023-02-15T05:30:14;20.87;;;12.80;;
14251;SDS011;7210;51.502;10.722;2023-02-15T05:32:41;39.13;;;14.07;;
14251;SDS011;7210;51.502;10.722;2023-02-15T05:35:12;36.13;;;14.97;;
14251;SDS011;7210;51.502;10.722;2023-02-15T05:37:41;34.67;;;14.13;;
14251;SDS011;7210;51.502;10.722;2023-02-15T05:40:08;65.93;;;14.37;;
14251;SDS011;7210;51.502;10.722;2023-02-15T05:42:43;25.63;;;13.03;;
14251;SDS011;7210;51.502;10.722;2023-02-15T05:45:10;20.60;;;13.37;;
14251;SDS011;7210;51.502;10.722;2023-02-15T05:47:37;27.77;;;12.13;;
14251;SDS011;7210;51.502;10.722;2023-02-15T05:50:05;24.17;;;12.27;;
14251;SDS011;7210;51.502;10.722;2023-02-15T05:52:33;41.73;;;13.23;;
14251;SDS011;7210;51.502;10.722;2023-02-15T05:55:00;28.67;;;12.30;;
14251;SDS011;7210;51.502;10.722;2023-02-15T05:57:28;26.63;;;13.23;;
14251;SDS011;7210;51.502;10.722;2023-02-15T05:59:57;17.80;;;11.80;;
14251;SDS011;7210;51.502;10.722;2023-02-15T06:02:24;23.33;;;11.77;;
14251;SDS011;7210;51.502;10.722;2023-02-15T06:04:51;22.53;;;10.97;;
14251;SDS011;7210;51.502;10.722;2023-02-15T06:07:19;26.90;;;12.17;;
14251;SDS011;7210;51.502;10.722;2023-02-15T06:09:46;21.63;;;12.40;;
14251;SDS011;7210;51.502;10.722;2023-02-15T06:12:15;22.17;;;12.00;;
14251;SDS011;7210;51.502;10.722;2023-02-15T06:14:42;27.63;;;12.37;;
14251;SDS011;7210;51.502;10.722;2023-02-15T06:17:11;20.47;;;11.67;;
14251;SDS011;7210;51.502;10.722;2023-02-15T06:19:38;26.47;;;11.57;;
14251;SDS011;7210;51.502;10.722;2023-02-15T06:22:11;28.43;;;11.90;;
14251;SDS011;7210;51.502;10.722;2023-02-15T06:24:40;25.30;;;11.93;;
14251;SDS011;7210;51.502;10.722;2023-02-15T06:27:08;17.30;;;11.90;;
14251;SDS011;7210;51.502;10.722;2023-02-15T06:29:35;26.13;;;12.40;;
14251;SDS011;7210;51.502;10.722;2023-02-15T06:32:03;20.17;;;11.23;;
14251;SDS011;7210;51.502;10.722;2023-02-15T06:34:32;37.80;;;12.50;;
14251;SDS011;7210;51.502;10.722;2023-02-15T06:36:59;53.07;;;12.40;;
14251;SDS011;7210;51.502;10.722;2023-02-15T06:39:26;24.33;;;11.33;;
14251;SDS011;7210;51.502;10.722;2023-02-15T06:41:53;23.73;;;11.97;;
14251;SDS011;7210;51.502;10.722;2023-02-15T06:44:21;21.93;;;11.87;;
14251;SDS011;7210;51.502;10.722;2023-02-15T06:46:48;18.47;;;12.10;;
14251;SDS011;7210;51.502;10.722;2023-02-15T06:49:15;24.07;;;11.40;;
14251;SDS011;7210;51.502;10.722;2023-02-15T06:51:43;23.97;;;11.90;;
14251;SDS011;7210;51.502;10.722;2023-02-15T06:54:10;19.43;;;11.10;;
14251;SDS011;7210;51.502;10.722;2023-02-15T06:56:38;22.57;;;11.63;;
14251;SDS011;7210;51.502;10.722;2023-02-15T06:59:05;24.03;;;11.70;;
14251;SDS011;7210;51.502;10.722;2023-02-15T07:01:32;25.27;;;11.70;;
14251;SDS011;7210;51.502;10.722;2023-02-15T07:03:59;23.23;;;11.43;;
14251;SDS011;7210;51.502;10.722;2023-02-15T07:06:26;22.80;;;11.57;;
14251;SDS011;7210;51.502;10.722;2023-02-15T07:08:59;20.17;;;10.23;;
14251;SDS011;7210;51.502;10.722;2023-02-15T07:11:31;24.80;;;11.37;;
14251;SDS011;7210;51.502;10.722;2023-02-15T07:14:16;79.33;;;13.00;;
14251;SDS011;7210;51.502;10.722;2023-02-15T07:16:43;99.50;;;15.53;;
14251;SDS011;7210;51.502;10.722;2023-02-15T07:19:18;49.50;;;14.27;;
14251;SDS011;7210;51.502;10.722;2023-02-15T07:21:46;27.33;;;12.20;;
14251;SDS011;7210;51.502;10.722;2023-02-15T07:24:15;30.03;;;11.23;;
14251;SDS011;7210;51.502;10.722;2023-02-15T07:26:43;47.67;;;11.97;;
14251;SDS011;7210;51.502;10.722;2023-02-15T07:29:11;34.00;;;11.57;;
14251;SDS011;7210;51.502;10.722;2023-02-15T07:31:38;30.00;;;10.93;;
14251;SDS011;7210;51.502;10.722;2023-02-15T07:34:05;45.60;;;12.47;;
14251;SDS011;7210;51.502;10.722;2023-02-15T07:36:33;22.07;;;10.87;;
14251;SDS011;7210;51.502;10.722;2023-02-15T07:39:00;60.43;;;13.50;;
14251;SDS011;7210;51.502;10.722;2023-02-15T07:41:29;20.23;;;9.10;;
14251;SDS011;7210;51.502;10.722;2023-02-15T07:43:56;23.17;;;9.40;;
14251;SDS011;7210;51.502;10.722;2023-02-15T07:46:23;36.53;;;10.17;;
14251;SDS011;7210;51.502;10.722;2023-02-15T07:48:50;22.77;;;9.23;;
14251;SDS011;7210;51.502;10.722;2023-02-15T07:51:17;55.10;;;11.83;;
14251;SDS011;7210;51.502;10.722;2023-02-15T07:53:45;29.37;;;10.97;;
14251;SDS011;7210;51.502;10.722;2023-02-15T07:56:13;54.10;;;11.40;;
14251;SDS011;7210;51.502;10.722;2023-02-15T07:58:43;33.10;;;10.37;;
14251;SDS011;7210;51.502;10.722;2023-02-15T08:01:21;32.07;;;10.33;;
14251;SDS011;7210;51.502;10.722;2023-02-15T08:03:51;36.70;;;10.43;;
14251;SDS011;7210;51.502;10.722;2023-02-15T08:06:19;83.30;;;10.53;;
14251;SDS011;7210;51.502;10.722;2023-02-15T08:08:47;83.20;;;10.50;;
14251;SDS011;7210;51.502;10.722;2023-02-15T08:11:15;52.27;;;23.73;;
14251;SDS011;7210;51.502;10.722;2023-02-15T08:13:56;50.20;;;11.63;;
14251;SDS011;7210;51.502;10.722;2023-02-15T08:16:26;40.00;;;10.43;;
14251;SDS011;7210;51.502;10.722;2023-02-15T08:18:56;55.07;;;8.83;;
14251;SDS011;7210;51.502;10.722;2023-02-15T08:21:27;60.97;;;21.10;;
14251;SDS011;7210;51.502;10.722;2023-02-15T08:23:56;76.30;;;17.73;;
14251;SDS011;7210;51.502;10.722;2023-02-15T08:26:25;83.43;;;29.60;;
14251;SDS011;7210;51.502;10.722;2023-02-15T08:28:55;55.00;;;16.47;;
14251;SDS011;7210;51.502;10.722;2023-02-15T08:31:33;57.03;;;14.00;;
14251;SDS011;7210;51.502;10.722;2023-02-15T08:34:02;43.43;;;12.83;;
14251;SDS011;7210;51.502;10.722;2023-02-15T08:36:31;26.40;;;9.70;;
14251;SDS011;7210;51.502;10.722;2023-02-15T08:39:00;36.67;;;9.70;;
14251;SDS011;7210;51.502;10.722;2023-02-15T08:41:31;12.80;;;9.80;;
14251;SDS011;7210;51.502;10.722;2023-02-15T08:44:02;18.10;;;10.43;;
14251;SDS011;7210;51.502;10.722;2023-02-15T08:46:34;26.33;;;11.10;;
14251;SDS011;7210;51.502;10.722;2023-02-15T08:49:03;14.90;;;9.20;;
14251;SDS011;7210;51.502;10.722;2023-02-15T08:51:32;17.33;;;9.47;;
14251;SDS011;7210;51.502;10.722;2023-02-15T08:54:02;26.63;;;10.33;;
14251;SDS011;7210;51.502;10.722;2023-02-15T08:56:32;17.00;;;9.70;;
14251;SDS011;7210;51.502;10.722;2023-02-15T08:59:04;23.43;;;11.13;;
14251;SDS011;7210;51.502;10.722;2023-02-15T09:01:34;16.47;;;9.87;;
14251;SDS011;7210;51.502;10.722;2023-02-15T09:04:02;22.13;;;12.13;;
14251;SDS011;7210;51.502;10.722;2023-02-15T09:06:33;18.93;;;9.57;;
14251;SDS011;7210;51.502;10.722;2023-02-15T09:09:02;29.50;;;10.13;;
14251;SDS011;7210;51.502;10.722;2023-02-15T09:11:30;27.63;;;9.80;;
14251;SDS011;7210;51.502;10.722;2023-02-15T09:14:02;19.57;;;8.83;;
14251;SDS011;7210;51.502;10.722;2023-02-15T09:16:35;21.23;;;9.00;;
14251;SDS011;7210;51.502;10.722;2023-02-15T09:19:04;16.87;;;8.60;;
14251;SDS011;7210;51.502;10.722;2023-02-15T09:21:33;29.63;;;10.50;;
14251;SDS011;7210;51.502;10.722;2023-02-15T09:24:04;41.40;;;14.67;;
14251;SDS011;7210;51.502;10.722;2023-02-15T09:26:34;68.37;;;10.43;;
14251;SDS011;7210;51.502;10.722;2023-02-15T09:29:07;33.37;;;9.13;;
14251;SDS011;7210;51.502;10.722;2023-02-15T09:31:38;10.70;;;8.03;;
14251;SDS011;7210;51.502;10.722;2023-02-15T09:34:09;10.17;;;7.13;;
14251;SDS011;7210;51.502;10.722;2023-02-15T09:36:37;20.17;;;9.13;;
14251;SDS011;7210;51.502;10.722;2023-02-15T09:39:07;46.80;;;9.80;;
14251;SDS011;7210;51.502;10.722;2023-02-15T09:41:52;13.93;;;10.23;;
14251;SDS011;7210;51.502;10.722;2023-02-15T09:45:03;23.23;;;9.73;;
14251;SDS011;7210;51.502;10.722;2023-02-15T09:50:52;20.60;;;9.27;;
14251;SDS011;7210;51.502;10.722;2023-02-15T09:53:38;10.53;;;8.33;;
14251;SDS011;7210;51.502;10.722;2023-02-15T09:56:31;16.73;;;8.97;;
14251;SDS011;7210;51.502;10.722;2023-02-15T09:59:07;18.33;;;8.83;;
14251;SDS011;7210;51.502;10.722;2023-02-15T10:01:51;10.57;;;9.50;;
14251;SDS011;7210;51.502;10.722;2023-02-15T10:04:40;10.63;;;8.60;;
14251;SDS011;7210;51.502;10.722;2023-02-15T10:07:29;10.33;;;8.53;;
14251;SDS011;7210;51.502;10.722;2023-02-15T10:10:29;10.90;;;8.40;;
14251;SDS011;7210;51.502;10.722;2023-02-15T10:13:13;9.63;;;8.60;;
14251;SDS011;7210;51.502;10.722;2023-02-15T10:16:01;10.63;;;8.60;;
14251;SDS011;7210;51.502;10.722;2023-02-15T10:18:52;11.20;;;8.87;;
14251;SDS011;7210;51.502;10.722;2023-02-15T10:21:34;9.93;;;8.93;;
14251;SDS011;7210;51.502;10.722;2023-02-15T10:24:26;10.70;;;8.63;;
14251;SDS011;7210;51.502;10.722;2023-02-15T10:27:14;9.33;;;8.17;;
14251;SDS011;7210;51.502;10.722;2023-02-15T10:29:48;9.87;;;8.87;;
14251;SDS011;7210;51.502;10.722;2023-02-15T10:32:30;12.27;;;9.50;;
14251;SDS011;7210;51.502;10.722;2023-02-15T10:35:10;10.40;;;8.80;;
14251;SDS011;7210;51.502;10.722;2023-02-15T10:37:53;11.00;;;9.33;;
14251;SDS011;7210;51.502;10.722;2023-02-15T10:40:41;12.80;;;11.40;;
14251;SDS011;7210;51.502;10.722;2023-02-15T10:46:27;15.00;;;13.43;;
14251;SDS011;7210;51.502;10.722;2023-02-15T10:49:33;13.83;;;11.10;;
14251;SDS011;7210;51.502;10.722;2023-02-15T10:52:32;11.20;;;9.70;;
14251;SDS011;7210;51.502;10.722;2023-02-15T10:55:21;12.47;;;9.60;;
14251;SDS011;7210;51.502;10.722;2023-02-15T10:58:06;13.00;;;9.37;;
14251;SDS011;7210;51.502;10.722;2023-02-15T11:00:50;11.43;;;9.53;;
14251;SDS011;7210;51.502;10.722;2023-02-15T11:03:37;11.97;;;10.27;;
14251;SDS011;7210;51.502;10.722;2023-02-15T11:06:24;12.73;;;8.93;;
14251;SDS011;7210;51.502;10.722;2023-02-15T11:08:55;11.93;;;9.27;;
14251;SDS011;7210;51.502;10.722;2023-02-15T11:11:31;10.40;;;9.30;;
14251;SDS011;7210;51.502;10.722;2023-02-15T11:14:05;12.50;;;9.40;;
14251;SDS011;7210;51.502;10.722;2023-02-15T11:16:50;11.07;;;9.47;;
14251;SDS011;7210;51.502;10.722;2023-02-15T11:19:30;11.40;;;9.63;;
14251;SDS011;7210;51.502;10.722;2023-02-15T11:22:06;12.50;;;9.73;;
14251;SDS011;7210;51.502;10.722;2023-02-15T11:24:39;9.20;;;8.10;;
14251;SDS011;7210;51.502;10.722;2023-02-15T11:27:16;10.80;;;8.20;;
14251;SDS011;7210;51.502;10.722;2023-02-15T11:29:50;9.23;;;8.10;;
14251;SDS011;7210;51.502;10.722;2023-02-15T11:32:26;8.23;;;7.40;;
14251;SDS011;7210;51.502;10.722;2023-02-15T11:34:59;8.90;;;8.00;;
14251;SDS011;7210;51.502;10.722;2023-02-15T11:37:37;9.73;;;7.87;;
14251;SDS011;7210;51.502;10.722;2023-02-15T11:40:17;8.93;;;8.03;;
14251;SDS011;7210;51.502;10.722;2023-02-15T11:42:49;8.27;;;7.47;;
14251;SDS011;7210;51.502;10.722;2023-02-15T11:45:23;9.20;;;8.20;;
14251;SDS011;7210;51.502;10.722;2023-02-15T11:47:55;11.57;;;8.27;;
14251;SDS011;7210;51.502;10.722;2023-02-15T11:50:25;10.20;;;9.10;;
14251;SDS011;7210;51.502;10.722;2023-02-15T11:52:57;11.27;;;10.17;;
14251;SDS011;7210;51.502;10.722;2023-02-15T11:55:29;11.37;;;10.13;;
14251;SDS011;7210;51.502;10.722;2023-02-15T11:58:01;11.73;;;10.63;;
14251;SDS011;7210;51.502;10.722;2023-02-15T12:00:50;10.03;;;9.03;;
14251;SDS011;7210;51.502;10.722;2023-02-15T12:03:26;9.83;;;8.00;;
14251;SDS011;7210;51.502;10.722;2023-02-15T12:06:05;8.60;;;7.80;;
14251;SDS011;7210;51.502;10.722;2023-02-15T12:09:00;7.20;;;6.50;;
14251;SDS011;7210;51.502;10.722;2023-02-15T12:11:40;9.00;;;6.87;;
14251;SDS011;7210;51.502;10.722;2023-02-15T12:14:08;11.40;;;7.67;;
14251;SDS011;7210;51.502;10.722;2023-02-15T12:16:41;8.83;;;7.23;;
14251;SDS011;7210;51.502;10.722;2023-02-15T12:19:27;7.20;;;6.50;;
14251;SDS011;7210;51.502;10.722;2023-02-15T12:21:59;9.17;;;6.87;;
14251;SDS011;7210;51.502;10.722;2023-02-15T12:24:36;7.10;;;6.23;;
14251;SDS011;7210;51.502;10.722;2023-02-15T12:27:15;7.23;;;6.53;;
14251;SDS011;7210;51.502;10.722;2023-02-15T12:29:47;7.90;;;7.07;;
14251;SDS011;7210;51.502;10.722;2023-02-15T12:32:21;7.43;;;6.60;;
14251;SDS011;7210;51.502;10.722;2023-02-15T12:34:52;7.33;;;6.43;;
14251;SDS011;7210;51.502;10.722;2023-02-15T12:37:28;7.83;;;7.03;;
14251;SDS011;7210;51.502;10.722;2023-02-15T12:40:00;6.83;;;6.20;;
14251;SDS011;7210;51.502;10.722;2023-02-15T12:42:46;7.17;;;6.07;;
14251;SDS011;7210;51.502;10.722;2023-02-15T12:45:20;7.13;;;6.43;;
14251;SDS011;7210;51.502;10.722;2023-02-15T12:48:13;8.13;;;6.40;;
14251;SDS011;7210;51.502;10.722;2023-02-15T12:50:43;7.30;;;6.60;;
14251;SDS011;7210;51.502;10.722;2023-02-15T12:53:14;7.33;;;6.43;;
14251;SDS011;7210;51.502;10.722;2023-02-15T12:55:51;7.10;;;6.40;;
14251;SDS011;7210;51.502;10.722;2023-02-15T12:58:22;6.50;;;5.77;;
14251;SDS011;7210;51.502;10.722;2023-02-15T13:01:08;6.70;;;6.00;;
14251;SDS011;7210;51.502;10.722;2023-02-15T13:03:51;8.13;;;7.07;;
14251;SDS011;7210;51.502;10.722;2023-02-15T13:06:24;7.87;;;6.07;;
14251;SDS011;7210;51.502;10.722;2023-02-15T13:08:53;6.73;;;5.57;;
14251;SDS011;7210;51.502;10.722;2023-02-15T13:11:25;6.93;;;6.23;;
14251;SDS011;7210;51.502;10.722;2023-02-15T13:14:00;7.20;;;5.97;;
14251;SDS011;7210;51.502;10.722;2023-02-15T13:16:41;6.23;;;5.63;;
14251;SDS011;7210;51.502;10.722;2023-02-15T13:19:14;6.70;;;6.00;;
14251;SDS011;7210;51.502;10.722;2023-02-15T13:21:46;6.60;;;5.70;;
14251;SDS011;7210;51.502;10.722;2023-02-15T13:24:18;8.23;;;6.33;;
14251;SDS011;7210;51.502;10.722;2023-02-15T13:26:50;6.67;;;5.93;;
14251;SDS011;7210;51.502;10.722;2023-02-15T13:29:23;7.03;;;6.33;;
14251;SDS011;7210;51.502;10.722;2023-02-15T13:31:55;6.47;;;5.80;;
14251;SDS011;7210;51.502;10.722;2023-02-15T13:34:28;5.83;;;5.23;;
14251;SDS011;7210;51.502;10.722;2023-02-15T13:37:02;5.77;;;5.27;;
14251;SDS011;7210;51.502;10.722;2023-02-15T13:39:38;6.10;;;5.50;;
14251;SDS011;7210;51.502;10.722;2023-02-15T13:42:14;6.07;;;5.47;;
14251;SDS011;7210;51.502;10.722;2023-02-15T13:44:56;7.07;;;5.63;;
14251;SDS011;7210;51.502;10.722;2023-02-15T13:47:40;6.87;;;5.47;;
14251;SDS011;7210;51.502;10.722;2023-02-15T13:50:20;5.60;;;5.07;;
14251;SDS011;7210;51.502;10.722;2023-02-15T13:53:18;5.70;;;5.20;;
14251;SDS011;7210;51.502;10.722;2023-02-15T13:56:25;5.57;;;5.00;;
14251;SDS011;7210;51.502;10.722;2023-02-15T13:59:16;6.93;;;5.67;;
14251;SDS011;7210;51.502;10.722;2023-02-15T14:02:16;6.63;;;5.93;;
14251;SDS011;7210;51.502;10.722;2023-02-15T14:05:35;7.77;;;6.27;;
14251;SDS011;7210;51.502;10.722;2023-02-15T14:08:19;7.53;;;6.23;;
14251;SDS011;7210;51.502;10.722;2023-02-15T14:11:06;7.03;;;6.27;;
14251;SDS011;7210;51.502;10.722;2023-02-15T14:17:05;8.23;;;6.40;;
14251;SDS011;7210;51.502;10.722;2023-02-15T14:19:48;8.00;;;7.20;;
14251;SDS011;7210;51.502;10.722;2023-02-15T14:22:25;8.60;;;7.33;;
14251;SDS011;7210;51.502;10.722;2023-02-15T14:25:02;8.67;;;7.43;;
14251;SDS011;7210;51.502;10.722;2023-02-15T14:27:50;10.37;;;9.27;;
14251;SDS011;7210;51.502;10.722;2023-02-15T14:30:32;10.10;;;9.10;;
14251;SDS011;7210;51.502;10.722;2023-02-15T14:33:06;11.70;;;9.57;;
14251;SDS011;7210;51.502;10.722;2023-02-15T14:35:43;10.37;;;8.77;;
14251;SDS011;7210;51.502;10.722;2023-02-15T14:38:16;11.87;;;10.67;;
14251;SDS011;7210;51.502;10.722;2023-02-15T14:41:10;11.30;;;9.90;;
14251;SDS011;7210;51.502;10.722;2023-02-15T14:43:47;9.93;;;8.80;;
14251;SDS011;7210;51.502;10.722;2023-02-15T14:46:29;9.73;;;8.67;;
14251;SDS011;7210;51.502;10.722;2023-02-15T14:49:08;16.10;;;14.40;;
14251;SDS011;7210;51.502;10.722;2023-02-15T14:51:54;11.00;;;9.40;;
14251;SDS011;7210;51.502;10.722;2023-02-15T14:57:33;9.17;;;8.23;;
14251;SDS011;7210;51.502;10.722;2023-02-15T15:03:02;11.47;;;9.83;;
14251;SDS011;7210;51.502;10.722;2023-02-15T15:05:48;8.50;;;7.47;;
14251;SDS011;7210;51.502;10.722;2023-02-15T15:08:25;9.30;;;8.40;;
14251;SDS011;7210;51.502;10.722;2023-02-15T15:14:04;10.83;;;9.03;;
14251;SDS011;7210;51.502;10.722;2023-02-15T15:16:48;11.80;;;10.60;;
14251;SDS011;7210;51.502;10.722;2023-02-15T15:22:34;10.10;;;9.10;;
14251;SDS011;7210;51.502;10.722;2023-02-15T15:25:03;8.00;;;7.17;;
14251;SDS011;7210;51.502;10.722;2023-02-15T15:27:43;11.17;;;10.07;;
14251;SDS011;7210;51.502;10.722;2023-02-15T15:36:56;9.30;;;8.27;;
14251;SDS011;7210;51.502;10.722;2023-02-15T15:43:34;7.27;;;6.57;;
14251;SDS011;7210;51.502;10.722;2023-02-15T15:46:34;9.10;;;7.40;;
14251;SDS011;7210;51.502;10.722;2023-02-15T15:49:44;9.60;;;8.00;;
14251;SDS011;7210;51.502;10.722;2023-02-15T15:52:14;9.33;;;7.93;;
14251;SDS011;7210;51.502;10.722;2023-02-15T15:54:44;12.60;;;11.30;;